Time;durP1;ratioP1;P1;durP2;ratioP2;P2;SDS_P1;SDS_P2;PMS_P1;PMS_P2;Temp;Humidity;BMP_temperature;BMP_pressure;BME280_temperature;BME280_humidity;BME280_pressure;Samples;Min_cycle;Max_cycle;Signal;HPM_P1;HPM_P2
2021/09/03 00:01:10;;;;;;;8.25;5.55;;;13.60;75.60;;;;;;5112970;28;20481;-74
2021/09/03 00:03:36;;;;;;;8.38;6.05;;;13.50;75.30;;;;;;5128725;28;20016;-74
2021/09/03 00:06:02;;;;;;;13.73;6.10;;;13.50;75.10;;;;;;5129090;28;20031;-74
2021/09/03 00:08:28;;;;;;;8.00;5.65;;;13.50;75.40;;;;;;5094821;28;20020;-74
2021/09/03 00:10:54;;;;;;;7.97;6.00;;;13.50;75.20;;;;;;5114161;28;20152;-74
2021/09/03 00:13:19;;;;;;;9.15;5.97;;;13.50;75.10;;;;;;5132816;27;20019;-74
2021/09/03 00:15:45;;;;;;;9.88;6.13;;;13.50;75.20;;;;;;5132707;27;20440;-74
2021/09/03 00:18:11;;;;;;;8.32;5.47;;;13.40;75.30;;;;;;5133004;27;20112;-74
2021/09/03 00:20:36;;;;;;;8.75;6.18;;;13.40;75.50;;;;;;5098928;28;20053;-74
2021/09/03 00:23:02;;;;;;;7.07;5.15;;;13.30;75.60;;;;;;5132839;27;20015;-74
2021/09/03 00:25:28;;;;;;;6.00;4.75;;;13.40;75.80;;;;;;5098522;28;20036;-74
2021/09/03 00:27:54;;;;;;;8.88;5.97;;;13.30;75.80;;;;;;5098761;28;20051;-74
2021/09/03 00:30:19;;;;;;;9.38;5.43;;;13.40;75.70;;;;;;5132646;27;20107;-74
2021/09/03 00:32:45;;;;;;;7.47;4.90;;;13.40;75.50;;;;;;5132705;27;20107;-74
2021/09/03 00:35:11;;;;;;;8.23;5.20;;;13.40;75.30;;;;;;5098014;28;20015;-74
2021/09/03 00:37:37;;;;;;;8.90;5.85;;;13.30;75.10;;;;;;5132349;27;20027;-74
2021/09/03 00:40:05;;;;;;;7.78;5.40;;;13.30;74.90;;;;;;5098319;28;20115;-73
2021/09/03 00:42:30;;;;;;;8.55;5.55;;;13.30;74.80;;;;;;5097837;28;20023;-74
2021/09/03 00:44:56;;;;;;;8.23;5.65;;;13.20;74.70;;;;;;5132198;27;20040;-73
2021/09/03 00:47:21;;;;;;;8.10;5.28;;;13.10;75.20;;;;;;5132028;27;20387;-73
2021/09/03 00:49:47;;;;;;;7.90;5.07;;;13.10;75.30;;;;;;5132353;27;20028;-73
2021/09/03 00:52:13;;;;;;;8.20;5.13;;;13.10;75.50;;;;;;5131786;27;20436;-73
2021/09/03 00:54:38;;;;;;;7.70;5.38;;;13.00;75.60;;;;;;5098258;28;20027;-74
2021/09/03 00:57:04;;;;;;;9.05;5.57;;;13.00;75.90;;;;;;5132048;27;20388;-74
2021/09/03 00:59:30;;;;;;;9.23;5.38;;;13.00;76.00;;;;;;5132193;27;20104;-75
2021/09/03 01:01:56;;;;;;;8.95;6.18;;;13.00;75.90;;;;;;5132121;27;20024;-73
2021/09/03 01:04:22;;;;;;;7.32;5.32;;;12.90;76.00;;;;;;5097480;28;20036;-73
2021/09/03 01:06:48;;;;;;;6.80;4.97;;;12.90;76.00;;;;;;5097637;28;20045;-73
2021/09/03 01:09:13;;;;;;;8.95;5.55;;;12.90;77.00;;;;;;5131515;27;20122;-73
2021/09/03 01:11:39;;;;;;;12.68;5.70;;;12.90;77.00;;;;;;5098014;28;20114;-73
2021/09/03 01:14:05;;;;;;;7.72;5.50;;;12.80;76.20;;;;;;5132039;27;20463;-73
2021/09/03 01:16:30;;;;;;;8.30;4.90;;;12.80;76.50;;;;;;5131533;27;20053;-73
2021/09/03 01:18:58;;;;;;;9.15;5.05;;;12.80;76.50;;;;;;5131465;27;20024;-76
2021/09/03 01:21:23;;;;;;;7.93;5.32;;;12.80;76.30;;;;;;5097490;28;20459;-73
2021/09/03 01:23:49;;;;;;;7.10;5.07;;;12.90;76.30;;;;;;5131394;27;20057;-74
2021/09/03 01:26:14;;;;;;;7.55;4.75;;;12.90;76.10;;;;;;5131479;27;20035;-73
2021/09/03 01:28:40;;;;;;;5.93;4.80;;;12.90;75.80;;;;;;5131639;27;20020;-73
2021/09/03 01:31:06;;;;;;;8.25;5.20;;;12.80;75.70;;;;;;5131615;27;20023;-73
2021/09/03 01:33:31;;;;;;;8.02;5.28;;;12.80;75.70;;;;;;5131403;27;20047;-73
2021/09/03 01:35:57;;;;;;;6.63;4.55;;;12.80;76.00;;;;;;5131534;27;20026;-73
2021/09/03 01:38:23;;;;;;;7.72;5.72;;;12.70;76.30;;;;;;5097238;28;20046;-73
2021/09/03 01:40:49;;;;;;;7.13;5.10;;;12.70;76.50;;;;;;5131454;27;20023;-73
2021/09/03 01:43:15;;;;;;;7.15;4.63;;;12.70;76.70;;;;;;5130985;27;20429;-73
2021/09/03 01:45:40;;;;;;;11.30;5.72;;;12.70;76.60;;;;;;5130888;27;20032;-73
2021/09/03 01:48:07;;;;;;;9.43;5.10;;;12.70;76.60;;;;;;5130876;27;20472;-74
2021/09/03 01:50:32;;;;;;;8.85;5.47;;;12.70;76.60;;;;;;5097094;28;20110;-73
2021/09/03 01:52:58;;;;;;;8.25;5.22;;;12.70;76.50;;;;;;5131168;27;20078;-73
2021/09/03 01:55:23;;;;;;;9.02;5.18;;;12.60;76.30;;;;;;5130916;27;20455;-74
2021/09/03 01:57:50;;;;;;;7.03;5.15;;;12.60;76.60;;;;;;5096901;28;20024;-73
2021/09/03 02:00:16;;;;;;;8.25;5.45;;;12.50;76.70;;;;;;5131005;27;20383;-74
2021/09/03 02:02:41;;;;;;;8.10;5.47;;;12.50;76.70;;;;;;5130288;27;20027;-75
2021/09/03 02:05:08;;;;;;;8.38;5.50;;;12.50;76.30;;;;;;5130384;27;20086;-75
2021/09/03 02:07:34;;;;;;;7.32;5.78;;;12.50;76.50;;;;;;5096678;28;20023;-75
2021/09/03 02:10:00;;;;;;;8.88;6.22;;;12.50;76.60;;;;;;5114747;28;20046;-75
2021/09/03 02:12:25;;;;;;;8.50;5.68;;;12.50;76.70;;;;;;5130392;27;20476;-75
2021/09/03 02:14:51;;;;;;;9.20;6.55;;;12.50;76.70;;;;;;5130688;27;20027;-74
2021/09/03 02:17:16;;;;;;;9.68;7.07;;;12.50;76.60;;;;;;5130330;27;20429;-74
2021/09/03 02:19:43;;;;;;;11.13;7.25;;;12.40;76.70;;;;;;5130352;27;20015;-75
2021/09/03 02:22:10;;;;;;;8.32;6.38;;;12.40;76.70;;;;;;5098318;28;20020;-74
2021/09/03 02:24:35;;;;;;;10.65;6.13;;;12.50;76.90;;;;;;5096929;28;20034;-74
2021/09/03 02:27:01;;;;;;;7.45;5.53;;;12.40;76.90;;;;;;5130089;27;20024;-74
2021/09/03 02:29:26;;;;;;;9.05;6.57;;;12.50;77.10;;;;;;5129860;27;20024;-74
2021/09/03 02:31:54;;;;;;;8.48;6.20;;;12.40;77.00;;;;;;5129982;27;20020;-73
2021/09/03 02:34:20;;;;;;;9.55;7.05;;;12.50;76.80;;;;;;5129713;27;20106;-74
2021/09/03 02:36:45;;;;;;;12.02;6.70;;;12.30;76.70;;;;;;5096123;28;20031;-74
2021/09/03 02:39:11;;;;;;;11.40;7.47;;;12.20;77.60;;;;;;5096052;28;20050;-74
2021/09/03 02:41:37;;;;;;;10.25;6.68;;;12.10;78.70;;;;;;5129843;27;20081;-74
2021/09/03 02:44:02;;;;;;;10.18;6.55;;;12.10;78.90;;;;;;5129879;27;20046;-74
2021/09/03 02:46:28;;;;;;;11.40;6.60;;;12.10;79.00;;;;;;5130155;27;20035;-74
2021/09/03 02:48:53;;;;;;;10.85;6.35;;;12.10;78.90;;;;;;5129943;27;20019;-74
2021/09/03 02:51:19;;;;;;;9.38;6.10;;;12.10;78.90;;;;;;5129708;27;20043;-74
2021/09/03 02:53:44;;;;;;;9.55;6.25;;;12.10;78.60;;;;;;5095848;28;20048;-73
2021/09/03 02:56:10;;;;;;;8.70;5.95;;;12.20;78.10;;;;;;5129841;27;20023;-74
2021/09/03 02:58:35;;;;;;;12.45;6.43;;;12.20;77.40;;;;;;5129962;27;20020;-74
2021/09/03 03:01:01;;;;;;;8.80;5.93;;;12.00;77.40;;;;;;5095738;28;20016;-74
2021/09/03 03:03:26;;;;;;;8.27;5.88;;;12.00;77.70;;;;;;5129601;27;20387;-74
2021/09/03 03:05:52;;;;;;;11.82;6.65;;;11.90;78.20;;;;;;5129432;27;20042;-73
2021/09/03 03:08:18;;;;;;;8.75;5.90;;;11.90;78.50;;;;;;5129556;27;20031;-73
2021/09/03 03:10:44;;;;;;;6.80;5.05;;;11.90;78.70;;;;;;5129224;27;20028;-75
2021/09/03 03:13:20;;;;;;;9.82;5.95;;;11.90;78.60;;;;;;5129314;27;20110;-74
2021/09/03 03:15:47;;;;;;;9.63;5.97;;;11.90;78.70;;;;;;5129646;27;20024;-75
2021/09/03 03:18:13;;;;;;;11.93;6.15;;;11.90;78.90;;;;;;5095400;28;20015;-74
2021/09/03 03:20:38;;;;;;;10.57;6.03;;;11.90;79.20;;;;;;5129639;27;20027;-74
2021/09/03 03:23:04;;;;;;;10.70;6.88;;;11.90;79.60;;;;;;5129276;27;20391;-75
2021/09/03 03:25:29;;;;;;;8.88;6.40;;;11.90;80.50;;;;;;5095188;28;20456;-75
2021/09/03 03:27:55;;;;;;;11.07;7.07;;;11.80;80.40;;;;;;5129392;27;20019;-74
2021/09/03 03:30:21;;;;;;;10.52;7.07;;;11.80;80.30;;;;;;5129329;27;20035;-74
2021/09/03 03:32:46;;;;;;;10.85;6.20;;;11.70;80.50;;;;;;5129102;27;20107;-74
2021/09/03 03:35:12;;;;;;;11.10;7.53;;;11.70;80.90;;;;;;5130142;27;20030;-74
2021/09/03 03:37:38;;;;;;;11.45;7.47;;;11.70;81.60;;;;;;5130393;27;20023;-74
2021/09/03 03:40:04;;;;;;;10.95;7.35;;;11.70;81.70;;;;;;5129853;28;20467;-74
2021/09/03 03:42:30;;;;;;;11.40;8.07;;;11.70;82.00;;;;;;5095769;28;20641;-74
2021/09/03 03:44:55;;;;;;;15.85;7.78;;;11.70;82.20;;;;;;5094891;28;20043;-74
2021/09/03 03:47:21;;;;;;;13.30;7.50;;;11.60;82.40;;;;;;5132293;27;20020;-74
2021/09/03 03:49:46;;;;;;;13.15;7.65;;;11.50;83.00;;;;;;5099411;28;20023;-75
2021/09/03 03:52:12;;;;;;;12.23;7.53;;;11.60;82.80;;;;;;5132887;27;20035;-75
2021/09/03 03:54:37;;;;;;;12.23;7.80;;;11.60;82.60;;;;;;5133537;27;20058;-75
2021/09/03 03:57:03;;;;;;;12.00;7.72;;;11.60;82.60;;;;;;5132870;27;20050;-75
2021/09/03 03:59:29;;;;;;;13.70;7.82;;;11.60;82.70;;;;;;5098860;28;20024;-74
2021/09/03 04:01:54;;;;;;;10.90;6.95;;;11.60;82.70;;;;;;5133119;27;20038;-75
2021/09/03 04:04:20;;;;;;;12.27;7.72;;;11.60;82.60;;;;;;5132412;27;20063;-75
2021/09/03 04:06:45;;;;;;;13.48;7.88;;;11.70;82.70;;;;;;5116921;28;20027;-75
2021/09/03 04:09:11;;;;;;;11.95;7.72;;;11.60;82.50;;;;;;5132847;27;20031;-75
2021/09/03 04:11:36;;;;;;;10.95;7.53;;;11.70;82.40;;;;;;5116881;28;20035;-76
2021/09/03 04:14:02;;;;;;;11.07;6.70;;;11.70;82.20;;;;;;5132529;27;20026;-75
2021/09/03 04:16:28;;;;;;;10.25;7.03;;;11.70;82.00;;;;;;5098612;28;20020;-75
2021/09/03 04:18:53;;;;;;;13.75;7.68;;;11.60;82.20;;;;;;5132989;27;20365;-75
2021/09/03 04:21:20;;;;;;;12.07;7.45;;;11.60;82.30;;;;;;5132529;27;20050;-75
2021/09/03 04:23:46;;;;;;;11.38;6.68;;;11.60;82.60;;;;;;5132810;27;20019;-75
2021/09/03 04:26:11;;;;;;;10.43;6.93;;;11.60;82.60;;;;;;5132581;27;20039;-75
2021/09/03 04:28:37;;;;;;;15.70;7.47;;;11.60;82.50;;;;;;5098698;28;20024;-75
2021/09/03 04:31:02;;;;;;;12.98;7.28;;;11.60;82.50;;;;;;5132571;27;20023;-75
2021/09/03 04:33:28;;;;;;;13.38;7.80;;;11.50;82.90;;;;;;5132480;27;20027;-75
2021/09/03 04:35:53;;;;;;;13.13;8.20;;;11.50;83.40;;;;;;5132279;27;20028;-75
2021/09/03 04:38:21;;;;;;;16.20;8.60;;;11.40;83.80;;;;;;5132112;27;20027;-75
2021/09/03 04:40:46;;;;;;;13.90;8.73;;;11.40;84.50;;;;;;5132448;27;20479;-74
2021/09/03 04:43:12;;;;;;;15.40;8.70;;;11.40;84.50;;;;;;5132210;27;20020;-74
2021/09/03 04:45:37;;;;;;;13.65;8.98;;;11.30;85.20;;;;;;5132028;27;20028;-74
2021/09/03 04:48:03;;;;;;;13.57;8.43;;;11.30;85.60;;;;;;5131961;27;20061;-74
2021/09/03 04:50:30;;;;;;;15.23;9.07;;;11.30;85.90;;;;;;5097944;28;20395;-74
2021/09/03 04:52:55;;;;;;;13.00;8.50;;;11.30;86.10;;;;;;5128749;27;20068;-74
2021/09/03 04:55:21;;;;;;;13.52;9.20;;;11.30;86.30;;;;;;5128552;27;20461;-74
2021/09/03 04:57:46;;;;;;;15.00;9.25;;;11.30;86.30;;;;;;5095460;28;20028;-74
2021/09/03 05:00:16;;;;;;;17.27;9.45;;;11.30;86.00;;;;;;5128158;27;20027;-74
2021/09/03 05:02:42;;;;;;;16.63;9.80;;;11.30;85.70;;;;;;5093984;28;20042;-74
2021/09/03 05:05:08;;;;;;;16.52;9.75;;;11.30;85.40;;;;;;5128279;27;20028;-74
2021/09/03 05:07:34;;;;;;;13.48;9.35;;;11.30;85.30;;;;;;5094115;28;20047;-74
2021/09/03 05:09:59;;;;;;;13.90;9.35;;;11.20;85.10;;;;;;5094061;28;20468;-74
2021/09/03 05:12:25;;;;;;;11.65;8.05;;;11.20;85.10;;;;;;5127824;27;20365;-74
2021/09/03 05:14:50;;;;;;;14.23;8.65;;;11.20;85.10;;;;;;5095012;28;20050;-73
2021/09/03 05:17:16;;;;;;;15.55;8.13;;;11.30;85.10;;;;;;5128438;27;20048;-73
2021/09/03 05:19:41;;;;;;;15.63;8.82;;;11.30;84.80;;;;;;5127608;27;20052;-74
2021/09/03 05:22:08;;;;;;;17.27;9.25;;;11.30;84.80;;;;;;5128146;27;20032;-74
2021/09/03 05:24:33;;;;;;;11.35;8.27;;;11.40;84.60;;;;;;5127852;27;20028;-74
2021/09/03 05:26:59;;;;;;;11.63;8.32;;;11.50;84.50;;;;;;5127667;27;20108;-74
2021/09/03 05:29:25;;;;;;;14.77;8.50;;;11.60;84.20;;;;;;5127492;27;20028;-74
2021/09/03 05:31:50;;;;;;;16.55;9.27;;;11.60;83.90;;;;;;5076745;28;20036;-74
2021/09/03 05:34:16;;;;;;;17.83;9.45;;;11.60;83.80;;;;;;5127382;27;20017;-74
2021/09/03 05:36:43;;;;;;;13.82;8.85;;;11.80;83.40;;;;;;5127401;27;20032;-74
2021/09/03 05:39:08;;;;;;;11.45;8.15;;;11.80;83.00;;;;;;5127859;27;20096;-74
2021/09/03 05:41:34;;;;;;;13.52;9.10;;;11.80;82.70;;;;;;5094734;28;20032;-74
2021/09/03 05:43:59;;;;;;;15.55;9.65;;;11.80;82.70;;;;;;5127422;27;20056;-74
2021/09/03 05:46:25;;;;;;;14.00;9.02;;;11.80;82.90;;;;;;5128432;27;20063;-74
2021/09/03 05:48:50;;;;;;;14.95;9.00;;;11.80;82.70;;;;;;5131209;27;20016;-74
2021/09/03 05:51:16;;;;;;;15.07;8.88;;;11.80;82.70;;;;;;5133379;27;20116;-74
2021/09/03 05:53:42;;;;;;;11.32;7.47;;;11.90;82.70;;;;;;5097525;28;20071;-73
2021/09/03 05:56:08;;;;;;;15.27;8.68;;;11.90;82.70;;;;;;5127403;27;20391;-74
2021/09/03 05:58:36;;;;;;;14.30;8.05;;;12.10;82.70;;;;;;5127707;27;20027;-74
2021/09/03 06:01:03;;;;;;;14.38;9.57;;;12.20;82.40;;;;;;5127628;27;20020;-73
2021/09/03 06:03:28;;;;;;;15.35;9.63;;;12.30;82.10;;;;;;5094650;28;20071;-75
2021/09/03 06:05:54;;;;;;;11.40;8.25;;;12.40;81.80;;;;;;5094302;28;20067;-74
2021/09/03 06:08:20;;;;;;;13.95;9.20;;;12.50;81.70;;;;;;5126269;27;20024;-74
2021/09/03 06:10:46;;;;;;;11.63;9.10;;;12.60;81.80;;;;;;5092749;28;20028;-74
2021/09/03 06:13:13;;;;;;;11.70;8.48;;;12.70;81.40;;;;;;5092641;28;20465;-75
2021/09/03 06:15:39;;;;;;;12.70;8.73;;;12.70;80.90;;;;;;5092805;28;20031;-74
2021/09/03 06:18:04;;;;;;;12.70;8.68;;;12.70;81.10;;;;;;5092883;28;20016;-74
2021/09/03 06:20:30;;;;;;;15.57;8.88;;;12.90;81.10;;;;;;5127028;27;20361;-73
2021/09/03 06:22:55;;;;;;;11.13;7.78;;;13.00;81.00;;;;;;5126634;27;20467;-74
2021/09/03 06:25:21;;;;;;;10.25;7.80;;;13.20;80.70;;;;;;5126578;27;20127;-74
2021/09/03 06:27:48;;;;;;;42.00;9.02;;;13.30;80.40;;;;;;5092437;28;20020;-76
2021/09/03 06:30:14;;;;;;;18.40;8.75;;;13.50;83.40;;;;;;5126407;27;20024;-76
2021/09/03 06:32:40;;;;;;;17.17;9.30;;;13.80;84.50;;;;;;5092729;28;20480;-75
2021/09/03 06:35:07;;;;;;;15.88;9.95;;;13.90;80.70;;;;;;5126683;27;20031;-74
2021/09/03 06:37:33;;;;;;;17.65;10.05;;;13.80;78.40;;;;;;5091791;28;20024;-73
2021/09/03 06:39:59;;;;;;;16.63;10.02;;;13.90;78.60;;;;;;5092612;28;20083;-75
2021/09/03 06:42:25;;;;;;;16.88;8.90;;;14.00;78.10;;;;;;5093788;28;20491;-73
2021/09/03 06:44:51;;;;;;;17.88;8.85;;;14.10;78.70;;;;;;5092460;28;20020;-73
2021/09/03 06:47:17;;;;;;;15.85;9.43;;;14.30;77.70;;;;;;5126438;27;20085;-74
2021/09/03 06:49:43;;;;;;;12.75;8.40;;;14.30;76.90;;;;;;5126392;27;20549;-73
2021/09/03 06:52:10;;;;;;;10.85;7.82;;;14.30;76.90;;;;;;5092165;28;20046;-74
2021/09/03 06:54:37;;;;;;;14.73;8.90;;;14.40;76.70;;;;;;5092181;28;20052;-73
2021/09/03 06:57:03;;;;;;;13.68;8.20;;;14.50;76.40;;;;;;5092061;28;20028;-73
2021/09/03 06:59:30;;;;;;;11.98;7.82;;;14.60;77.10;;;;;;5092272;28;20047;-73
2021/09/03 07:01:57;;;;;;;12.80;7.90;;;14.80;75.90;;;;;;5092212;28;20024;-73
2021/09/03 07:04:23;;;;;;;15.63;9.80;;;14.90;75.50;;;;;;5091655;28;20526;-74
2021/09/03 07:06:50;;;;;;;25.52;10.57;;;15.00;74.60;;;;;;5126233;27;20024;-74
2021/09/03 07:09:16;;;;;;;20.48;9.25;;;15.20;74.10;;;;;;5091946;28;20495;-74
2021/09/03 07:11:42;;;;;;;21.67;9.27;;;15.20;74.10;;;;;;5092060;28;20063;-74
2021/09/03 07:14:07;;;;;;;16.10;10.02;;;15.30;73.90;;;;;;5126143;27;20052;-74
2021/09/03 07:16:33;;;;;;;16.52;9.82;;;15.30;74.60;;;;;;5091754;28;20058;-75
2021/09/03 07:19:03;;;;;;;13.13;8.75;;;15.20;74.50;;;;;;5125866;27;20468;-74
2021/09/03 07:21:32;;;;;;;11.90;7.53;;;15.30;74.50;;;;;;5125715;27;20107;-74
2021/09/03 07:23:59;;;;;;;16.73;8.93;;;15.30;74.50;;;;;;5125732;27;20016;-72
2021/09/03 07:26:25;;;;;;;13.88;8.70;;;15.40;74.70;;;;;;5091781;28;20032;-75
2021/09/03 07:28:51;;;;;;;13.50;8.13;;;15.50;74.50;;;;;;5091680;28;20047;-73
2021/09/03 07:31:17;;;;;;;11.57;8.45;;;15.60;74.30;;;;;;5092941;28;20462;-72
2021/09/03 07:33:43;;;;;;;12.43;9.43;;;15.60;74.30;;;;;;5125448;27;20047;-73
2021/09/03 07:36:08;;;;;;;15.27;8.68;;;15.80;74.00;;;;;;5091664;28;20032;-72
2021/09/03 07:38:34;;;;;;;15.82;8.50;;;16.00;74.00;;;;;;5125853;27;20024;-73
2021/09/03 07:41:00;;;;;;;10.48;7.63;;;16.10;73.50;;;;;;5125967;27;20476;-73
2021/09/03 07:43:26;;;;;;;11.50;8.07;;;16.20;72.80;;;;;;5126202;27;20463;-73
2021/09/03 07:45:52;;;;;;;11.80;8.30;;;16.40;72.40;;;;;;5091308;28;20032;-75
2021/09/03 07:48:17;;;;;;;14.85;7.60;;;16.50;72.20;;;;;;5125394;28;20032;-74
2021/09/03 07:50:43;;;;;;;15.60;9.35;;;16.60;72.00;;;;;;5125420;28;20071;-74
2021/09/03 07:53:11;;;;;;;13.50;8.40;;;16.70;70.90;;;;;;5125251;28;20067;-72
2021/09/03 07:55:37;;;;;;;11.65;8.13;;;16.80;70.10;;;;;;5125651;28;20532;-73
2021/09/03 07:58:04;;;;;;;9.98;7.43;;;16.90;70.20;;;;;;5091381;28;20468;-73
2021/09/03 08:00:29;;;;;;;13.85;8.10;;;17.00;70.20;;;;;;5091436;28;20021;-73
2021/09/03 08:02:55;;;;;;;15.98;9.35;;;17.10;70.50;;;;;;5092663;28;20028;-73
2021/09/03 08:05:21;;;;;;;15.45;8.48;;;17.20;70.00;;;;;;5092428;28;20063;-73
2021/09/03 08:07:47;;;;;;;12.77;9.10;;;17.30;69.80;;;;;;5124977;28;20043;-72
2021/09/03 08:10:14;;;;;;;13.48;9.48;;;17.40;69.00;;;;;;5125039;28;20518;-74
2021/09/03 08:12:40;;;;;;;10.63;7.65;;;17.40;68.00;;;;;;5092409;28;20117;-73
2021/09/03 08:15:07;;;;;;;13.30;8.75;;;17.50;68.40;;;;;;5091083;28;20078;-72
2021/09/03 08:17:34;;;;;;;11.25;8.48;;;17.60;68.60;;;;;;5091204;28;20025;-72
2021/09/03 08:20:01;;;;;;;14.32;8.65;;;17.30;67.80;;;;;;5091249;28;20031;-75
2021/09/03 08:22:27;;;;;;;12.60;9.10;;;17.20;68.10;;;;;;5091130;28;20031;-73
2021/09/03 08:24:53;;;;;;;12.75;8.52;;;17.10;68.60;;;;;;5124896;28;20036;-73
2021/09/03 08:27:19;;;;;;;10.80;8.00;;;17.20;68.40;;;;;;5090798;28;20020;-74
2021/09/03 08:29:45;;;;;;;10.55;7.60;;;17.30;68.30;;;;;;5125267;28;20112;-74
2021/09/03 08:32:12;;;;;;;11.20;7.93;;;17.40;69.40;;;;;;5126969;27;20024;-73
2021/09/03 08:34:38;;;;;;;13.18;8.20;;;17.60;67.60;;;;;;5098419;28;20111;-73
2021/09/03 08:37:04;;;;;;;14.50;7.55;;;17.70;65.70;;;;;;5096230;28;20048;-73
2021/09/03 08:39:29;;;;;;;10.75;6.57;;;17.80;64.90;;;;;;5095188;28;20024;-73
2021/09/03 08:41:55;;;;;;;9.25;6.35;;;17.90;64.40;;;;;;5128845;27;20038;-74
2021/09/03 08:44:21;;;;;;;10.73;7.50;;;18.10;64.50;;;;;;5128718;27;20020;-73
2021/09/03 08:46:47;;;;;;;10.65;6.95;;;18.20;65.10;;;;;;5128703;27;20059;-73
2021/09/03 08:49:13;;;;;;;9.10;6.68;;;18.30;66.30;;;;;;5094306;28;20028;-73
2021/09/03 08:51:38;;;;;;;12.43;7.45;;;18.40;66.20;;;;;;5094039;28;20035;-74
2021/09/03 08:54:04;;;;;;;9.52;6.80;;;18.60;66.00;;;;;;5128613;27;20080;-73
2021/09/03 08:56:31;;;;;;;14.73;7.18;;;18.70;64.20;;;;;;5128710;27;20024;-74
2021/09/03 08:58:57;;;;;;;8.57;6.63;;;18.90;63.90;;;;;;5094513;28;20040;-73
2021/09/03 09:01:23;;;;;;;13.30;7.13;;;18.90;63.20;;;;;;5095365;28;20024;-73
2021/09/03 09:03:52;;;;;;;18.40;6.82;;;18.90;63.80;;;;;;5128504;27;20122;-73
2021/09/03 09:06:25;;;;;;;9.20;7.22;;;18.90;63.50;;;;;;5094081;28;20043;-74
2021/09/03 09:09:08;;;;;;;8.75;7.03;;;19.00;64.50;;;;;;5094350;28;20153;-73
2021/09/03 09:11:36;;;;;;;13.82;7.18;;;19.30;65.40;;;;;;5094158;28;20024;-73
2021/09/03 09:14:12;;;;;;;9.32;6.75;;;19.30;62.80;;;;;;5094239;28;20021;-74
2021/09/03 09:16:38;;;;;;;7.85;6.70;;;19.40;61.50;;;;;;5093958;28;20031;-74
2021/09/03 09:19:07;;;;;;;13.75;7.95;;;19.40;62.60;;;;;;5095474;28;20023;-74
2021/09/03 09:21:38;;;;;;;12.05;7.22;;;19.40;62.50;;;;;;5094016;28;20075;-74
2021/09/03 09:24:10;;;;;;;8.93;7.00;;;19.50;63.40;;;;;;5094772;28;20484;-74
2021/09/03 09:26:52;;;;;;;8.63;6.70;;;19.40;60.40;;;;;;5093796;28;20170;-74
2021/09/03 09:29:26;;;;;;;9.60;6.88;;;19.50;61.20;;;;;;5093733;28;20039;-74
2021/09/03 09:31:57;;;;;;;7.78;6.35;;;19.60;61.10;;;;;;5093992;28;20036;-73
2021/09/03 09:34:39;;;;;;;12.45;7.22;;;19.80;61.70;;;;;;5093875;28;20035;-74
2021/09/03 09:37:06;;;;;;;8.48;6.32;;;20.10;60.50;;;;;;5093600;28;20410;-74
2021/09/03 09:39:57;;;;;;;9.82;6.22;;;20.30;60.20;;;;;;5095096;28;20488;-74
2021/09/03 09:42:32;;;;;;;10.30;7.05;;;20.60;59.50;;;;;;5094835;28;20170;-74
2021/09/03 09:45:07;;;;;;;8.17;6.10;;;20.70;58.90;;;;;;5093737;28;20373;-74
2021/09/03 09:47:33;;;;;;;8.07;5.82;;;20.70;59.20;;;;;;5093276;28;20363;-74
2021/09/03 09:50:29;;;;;;;8.07;6.25;;;20.90;56.90;;;;;;5110578;28;20040;-74
2021/09/03 09:53:12;;;;;;;;;;;21.00;55.40;;;;;;5093460;28;20047;-74
2021/09/03 09:55:38;;;;;;;7.72;6.13;;;21.00;56.80;;;;;;5092860;28;19911;-74
2021/09/03 09:58:05;;;;;;;7.25;5.78;;;21.20;55.10;;;;;;5093727;28;20498;-74
2021/09/03 10:00:35;;;;;;;7.22;5.35;;;21.10;54.10;;;;;;5096795;28;20166;-74
2021/09/03 10:03:02;;;;;;;7.53;5.80;;;21.30;53.00;;;;;;5094838;28;20078;-74
2021/09/03 10:05:29;;;;;;;9.63;5.88;;;21.30;54.10;;;;;;5092567;28;20032;-74
2021/09/03 10:07:55;;;;;;;9.75;6.40;;;21.60;57.10;;;;;;5092952;28;20085;-74
2021/09/03 10:10:21;;;;;;;8.18;5.63;;;21.90;55.80;;;;;;5092733;28;20086;-74
2021/09/03 10:12:46;;;;;;;6.00;4.85;;;22.00;50.70;;;;;;5128149;27;20476;-74
2021/09/03 10:15:12;;;;;;;8.00;6.10;;;22.10;51.40;;;;;;5130499;27;20039;-75
2021/09/03 10:17:40;;;;;;;7.05;5.75;;;22.30;52.00;;;;;;5098029;28;20024;-75
2021/09/03 10:20:07;;;;;;;7.00;5.35;;;22.50;50.30;;;;;;5097075;28;20123;-75
2021/09/03 10:22:42;;;;;;;6.88;5.57;;;22.50;49.80;;;;;;5097027;28;20020;-76
2021/09/03 10:25:09;;;;;;;8.07;5.75;;;22.30;49.40;;;;;;5095947;28;20028;-74
2021/09/03 10:27:35;;;;;;;7.18;6.25;;;22.40;50.50;;;;;;5095375;28;20028;-74
2021/09/03 10:30:15;;;;;;;6.10;4.70;;;22.60;48.90;;;;;;5093922;28;20020;-74
2021/09/03 10:32:42;;;;;;;6.07;5.07;;;22.60;48.70;;;;;;5092382;28;20020;-74
2021/09/03 10:35:34;;;;;;;7.18;5.45;;;22.70;44.90;;;;;;5126077;27;20016;-74
2021/09/03 10:37:59;;;;;;;6.68;4.97;;;22.90;45.00;;;;;;5091926;28;20278;-73
2021/09/03 10:40:26;;;;;;;8.50;4.93;;;22.90;44.10;;;;;;5126245;27;20051;-72
2021/09/03 10:42:57;;;;;;;5.20;4.30;;;22.70;43.40;;;;;;5092421;28;20493;-72
2021/09/03 10:45:42;;;;;;;5.72;4.68;;;23.00;43.20;;;;;;5092194;28;20063;-73
2021/09/03 10:48:20;;;;;;;5.70;4.88;;;23.20;45.50;;;;;;5087933;28;20016;-74
2021/09/03 10:50:56;;;;;;;6.72;4.95;;;23.60;43.70;;;;;;5091981;28;20031;-73
2021/09/03 10:53:28;;;;;;;6.18;4.88;;;24.00;42.80;;;;;;5125815;27;20040;-73
2021/09/03 10:56:01;;;;;;;5.50;4.45;;;24.30;43.80;;;;;;5091777;28;20024;-74
2021/09/03 10:58:30;;;;;;;7.10;4.35;;;24.50;39.60;;;;;;5092025;28;20023;-75
2021/09/03 11:01:10;;;;;;;10.15;5.05;;;24.60;40.00;;;;;;5092322;28;20031;-75
2021/09/03 11:03:49;;;;;;;6.85;5.13;;;24.60;39.40;;;;;;5092203;28;20120;-75
2021/09/03 11:07:00;;;;;;;6.38;4.75;;;24.40;39.70;;;;;;5091342;28;20454;-73
2021/09/03 11:09:28;;;;;;;6.70;4.85;;;24.40;40.10;;;;;;5120880;27;20024;-73
2021/09/03 11:11:56;;;;;;;6.05;5.38;;;24.70;40.10;;;;;;5091531;28;20059;-73
2021/09/03 11:14:26;;;;;;;8.00;5.00;;;24.90;39.60;;;;;;5091661;28;20026;-73
2021/09/03 11:17:03;;;;;;;5.88;5.25;;;25.10;39.90;;;;;;5091917;28;20024;-73
2021/09/03 11:19:46;;;;;;;6.68;4.93;;;25.40;39.70;;;;;;5091530;28;20020;-73
2021/09/03 11:22:22;;;;;;;6.47;5.18;;;25.30;39.50;;;;;;5091665;28;20387;-74
2021/09/03 11:24:51;;;;;;;6.53;5.68;;;25.10;39.50;;;;;;5092791;28;20031;-73
2021/09/03 11:27:22;;;;;;;6.55;5.20;;;24.90;39.40;;;;;;5091474;28;20024;-74
2021/09/03 11:29:50;;;;;;;8.23;4.82;;;24.60;40.40;;;;;;5091511;28;20035;-73
2021/09/03 11:32:20;;;;;;;5.68;4.78;;;24.80;39.10;;;;;;5091472;28;20380;-74
2021/09/03 11:34:47;;;;;;;5.78;4.43;;;25.10;37.80;;;;;;5091546;28;20475;-74
2021/09/03 11:37:20;;;;;;;6.75;5.03;;;25.50;36.80;;;;;;5091423;28;20480;-74
2021/09/03 11:39:45;;;;;;;6.97;4.55;;;25.80;35.90;;;;;;5091615;28;20051;-73
2021/09/03 11:42:32;;;;;;;6.93;4.68;;;26.10;35.40;;;;;;5125224;27;20039;-73
2021/09/03 11:45:02;;;;;;;4.85;3.70;;;26.10;34.70;;;;;;5091389;28;20032;-72
2021/09/03 11:47:36;;;;;;;6.93;4.30;;;26.00;33.80;;;;;;5091706;28;20039;-73
2021/09/03 11:50:09;;;;;;;4.78;4.28;;;25.90;33.20;;;;;;5091085;28;20078;-74
2021/09/03 11:52:34;;;;;;;6.22;4.18;;;26.00;33.70;;;;;;5090994;28;20047;-74
2021/09/03 11:55:04;;;;;;;5.57;4.60;;;26.40;35.70;;;;;;5091393;28;20032;-73
2021/09/03 11:57:49;;;;;;;7.88;4.75;;;26.60;35.30;;;;;;5091236;28;20059;-74
2021/09/03 12:00:18;;;;;;;7.55;4.30;;;26.70;35.00;;;;;;5091369;28;20024;-74
2021/09/03 12:02:44;;;;;;;4.70;4.20;;;26.90;34.90;;;;;;5093544;28;20092;-74
2021/09/03 12:05:10;;;;;;;6.93;4.15;;;27.00;35.20;;;;;;5127378;28;20503;-74
2021/09/03 12:07:35;;;;;;;6.18;4.47;;;27.40;35.60;;;;;;5095940;28;20035;-73
2021/09/03 12:10:01;;;;;;;5.03;4.53;;;27.80;34.80;;;;;;5133120;27;20169;-75
2021/09/03 12:12:29;;;;;;;5.80;4.70;;;27.80;33.00;;;;;;5102414;28;20034;-74
2021/09/03 12:15:00;;;;;;;4.68;3.90;;;27.40;33.00;;;;;;5100569;28;20119;-74
2021/09/03 12:17:42;;;;;;;6.47;4.50;;;27.60;33.10;;;;;;5098273;28;20028;-74
2021/09/03 12:20:16;;;;;;;7.53;4.70;;;27.80;32.10;;;;;;5093466;28;20024;-73
2021/09/03 12:22:49;;;;;;;9.93;4.43;;;27.80;32.00;;;;;;5097252;28;20587;-73
2021/09/03 12:25:14;;;;;;;7.13;4.45;;;27.60;32.20;;;;;;5095387;28;20055;-74
2021/09/03 12:27:40;;;;;;;5.50;4.00;;;27.80;32.20;;;;;;5130315;27;20035;-74
2021/09/03 12:30:11;;;;;;;9.27;4.57;;;27.90;32.40;;;;;;5130730;27;20128;-74
2021/09/03 12:32:37;;;;;;;4.75;4.25;;;28.00;33.60;;;;;;5095298;28;20032;-75
2021/09/03 12:35:09;;;;;;;5.93;4.15;;;28.10;31.70;;;;;;5129339;27;20020;-74
2021/09/03 12:37:34;;;;;;;7.32;4.38;;;28.40;30.90;;;;;;5095035;28;20020;-74
2021/09/03 12:40:07;;;;;;;7.00;4.00;;;28.60;30.30;;;;;;5128662;27;20367;-74
2021/09/03 12:42:40;;;;;;;4.80;4.07;;;28.80;29.20;;;;;;5094846;28;20020;-74
2021/09/03 12:45:07;;;;;;;4.30;3.63;;;29.00;30.00;;;;;;5094688;28;20119;-75